Echo, UT (84024)

7:07 AM MDT on October 20, 2014 (GMT -0600)
Morgan | Change Station
CLOSE
Current Station
Personal Weather Station
Location: Morgan, UT
Elevation: 1541 m
Nearby Weather Stations

Elev 1541 m 41.03 °N, 111.70 °W | Updated 17 seconds ago

Clear
Clear
0.9 °C
Feels Like 1 °C
N
0.0
Wind Variable Wind from SE
Gusts 0.0 km/h

Today
High -- | Low -- °C
--% Chance of Precip.
Yesterday
High -- | Low -- °C
Precip. -- mm
7:42 AM 6:37 PM
Waning Crescent, 11% visible
Pressure 1015 hPa
Visibility 16.1 kilometers
Clouds Clear
Windchill 1 °C
Dew Point -1 °C
Humidity 86%
Rainfall 0 mm
Snow Depth 0 in , 0 in , 1 in
UV 0 out of 12
Pollen 2.00 out of 12
Air Quality Not available.
Flu Activity Sporadic
METAR KEVW 201153Z AUTO 14005KT 10SM CLR 07/M03 A3018 RMK AO2 SLP149 T00671028 10094 20056 56003 TSNO

More Conditions Fewer Conditions

Pressure 1015 hPa
Visibility 16.1 kilometers
Clouds Clear
Windchill 1 °C
Dew Point -1 °C
Humidity 86%
Rainfall 0 mm
Snow Depth 0 in , 0 in , 1 in
UV 0 out of 12
Pollen 2.00 out of 12
Air Quality Not available.
Flu Activity Sporadic
METAR KEVW 201153Z AUTO 14005KT 10SM CLR 07/M03 A3018 RMK AO2 SLP149 T00671028 10094 20056 56003 TSNO

More Conditions Fewer Conditions

10-Day Weather Forecast

Almanac

Astronomy

Oct. 20, 2014 Rise Set
Actual Time 7:42 AM MDT 6:37 PM MDT
Civil Twilight 7:14 AM MDT 7:05 PM MDT
Nautical Twilight 6:42 AM MDT 7:37 PM MDT
Astronomical Twilight 6:10 AM MDT 8:09 PM MDT
Moon 4:32 AM MDT 5:03 PM MDT
Length of Visible Light 11h 50m
Length of Day
10h 54m
Waning Crescent, 11% of the Moon is Illuminated
Today
Waning Crescent
Oct 23
New
Oct 30
First Quarter
Nov 6
Full
Nov 14
Last Quarter

Today's Extremes

State Highs State Lows

Community

WunderPhotos

Upload Photos

1,763,363 photos uploaded!

Nearby

Snow Depth

Station Depth Elevation
Lookout Peak 0 in 8200 ft
Chalk Creek #2 0 in 8200 ft
Farmington 0 in 8000 ft
Parrish Creek 0 in 7740 ft
Chalk Creek #1 1 in 9100 ft

Earthquake Activity

City Distance Mag. Time & Date
No recent earthquake activity has been reported nearby.
Minimum magnitude displayed is 2.5.

Coastal Water Temperatures

Place Temperature
No Stations Reporting

Nearby Weather Stations